sensor_id;sensor_type;location;lat;lon;timestamp;temperature;humidity
3684;DHT22;1858;48.716;9.648;2023-03-01T00:01:48;-0.30;1.00
3684;DHT22;1858;48.716;9.648;2023-03-01T00:04:17;-0.20;1.00
3684;DHT22;1858;48.716;9.648;2023-03-01T00:06:45;-0.10;1.00
3684;DHT22;1858;48.716;9.648;2023-03-01T00:09:15;-0.20;1.00
3684;DHT22;1858;48.716;9.648;2023-03-01T00:11:44;-0.20;1.00
3684;DHT22;1858;48.716;9.648;2023-03-01T00:14:12;-0.20;1.00
3684;DHT22;1858;48.716;9.648;2023-03-01T00:16:44;-0.40;1.00
3684;DHT22;1858;48.716;9.648;2023-03-01T00:19:15;-0.50;1.00
3684;DHT22;1858;48.716;9.648;2023-03-01T00:21:44;-0.50;1.00
3684;DHT22;1858;48.716;9.648;2023-03-01T00:24:13;-0.50;1.00
3684;DHT22;1858;48.716;9.648;2023-03-01T00:26:41;-0.60;1.00
3684;DHT22;1858;48.716;9.648;2023-03-01T00:29:10;-0.60;1.00
3684;DHT22;1858;48.716;9.648;2023-03-01T00:31:38;-0.60;1.00
3684;DHT22;1858;48.716;9.648;2023-03-01T00:34:06;-0.70;1.00
3684;DHT22;1858;48.716;9.648;2023-03-01T00:36:36;-0.50;1.00
3684;DHT22;1858;48.716;9.648;2023-03-01T00:39:09;-0.60;1.00
3684;DHT22;1858;48.716;9.648;2023-03-01T00:41:36;-0.70;1.00
3684;DHT22;1858;48.716;9.648;2023-03-01T00:44:04;-0.80;1.00
3684;DHT22;1858;48.716;9.648;2023-03-01T00:46:33;-0.80;1.00
3684;DHT22;1858;48.716;9.648;2023-03-01T00:49:02;-0.80;1.00
3684;DHT22;1858;48.716;9.648;2023-03-01T00:51:32;-0.90;1.00
3684;DHT22;1858;48.716;9.648;2023-03-01T00:54:01;-0.90;1.00
3684;DHT22;1858;48.716;9.648;2023-03-01T00:56:31;-1.00;1.00
3684;DHT22;1858;48.716;9.648;2023-03-01T00:59:00;-0.90;1.00
3684;DHT22;1858;48.716;9.648;2023-03-01T01:01:30;-1.00;1.00
3684;DHT22;1858;48.716;9.648;2023-03-01T01:04:07;-0.90;1.00
3684;DHT22;1858;48.716;9.648;2023-03-01T01:06:40;-0.90;1.00
3684;DHT22;1858;48.716;9.648;2023-03-01T01:09:15;-0.80;1.00
3684;DHT22;1858;48.716;9.648;2023-03-01T01:11:51;-0.80;1.00
3684;DHT22;1858;48.716;9.648;2023-03-01T01:14:19;-0.70;1.00
3684;DHT22;1858;48.716;9.648;2023-03-01T01:16:48;-0.60;1.00
3684;DHT22;1858;48.716;9.648;2023-03-01T01:19:17;-0.60;1.00
3684;DHT22;1858;48.716;9.648;2023-03-01T01:21:45;-0.50;1.00
3684;DHT22;1858;48.716;9.648;2023-03-01T01:24:15;-0.40;1.00
3684;DHT22;1858;48.716;9.648;2023-03-01T01:26:44;-0.30;1.00
3684;DHT22;1858;48.716;9.648;2023-03-01T01:29:13;-0.20;1.00
3684;DHT22;1858;48.716;9.648;2023-03-01T01:31:42;-0.20;1.00
3684;DHT22;1858;48.716;9.648;2023-03-01T01:34:16;-0.10;1.00
3684;DHT22;1858;48.716;9.648;2023-03-01T01:36:50;-0.10;1.00
3684;DHT22;1858;48.716;9.648;2023-03-01T01:39:21;-0.10;1.00
3684;DHT22;1858;48.716;9.648;2023-03-01T01:41:50;0.00;1.00
3684;DHT22;1858;48.716;9.648;2023-03-01T01:44:21;0.00;1.00
3684;DHT22;1858;48.716;9.648;2023-03-01T01:49:40;-0.10;1.00
3684;DHT22;1858;48.716;9.648;2023-03-01T01:52:11;0.00;1.00
3684;DHT22;1858;48.716;9.648;2023-03-01T01:57:22;0.00;1.00
3684;DHT22;1858;48.716;9.648;2023-03-01T01:59:56;0.10;1.00
3684;DHT22;1858;48.716;9.648;2023-03-01T02:02:25;0.10;1.00
3684;DHT22;1858;48.716;9.648;2023-03-01T02:05:00;0.10;1.00
3684;DHT22;1858;48.716;9.648;2023-03-01T02:07:26;0.20;1.00
3684;DHT22;1858;48.716;9.648;2023-03-01T02:09:55;0.30;1.00
3684;DHT22;1858;48.716;9.648;2023-03-01T02:12:24;0.30;1.00
3684;DHT22;1858;48.716;9.648;2023-03-01T02:14:53;0.40;1.00
3684;DHT22;1858;48.716;9.648;2023-03-01T02:17:22;0.40;1.00
3684;DHT22;1858;48.716;9.648;2023-03-01T02:20:09;0.40;1.00
3684;DHT22;1858;48.716;9.648;2023-03-01T02:22:36;0.30;1.00
3684;DHT22;1858;48.716;9.648;2023-03-01T02:33:46;0.50;1.00
3684;DHT22;1858;48.716;9.648;2023-03-01T02:39:46;0.60;1.00
3684;DHT22;1858;48.716;9.648;2023-03-01T02:42:19;0.60;1.00
3684;DHT22;1858;48.716;9.648;2023-03-01T02:44:49;0.70;1.00
3684;DHT22;1858;48.716;9.648;2023-03-01T02:47:17;0.70;1.00
3684;DHT22;1858;48.716;9.648;2023-03-01T02:49:46;0.60;1.00
3684;DHT22;1858;48.716;9.648;2023-03-01T02:52:34;0.60;1.00
3684;DHT22;1858;48.716;9.648;2023-03-01T02:55:08;0.70;1.00
3684;DHT22;1858;48.716;9.648;2023-03-01T02:57:39;0.80;1.00
3684;DHT22;1858;48.716;9.648;2023-03-01T03:00:13;0.70;1.00
3684;DHT22;1858;48.716;9.648;2023-03-01T03:02:47;0.60;1.00
3684;DHT22;1858;48.716;9.648;2023-03-01T03:05:19;0.70;1.00
3684;DHT22;1858;48.716;9.648;2023-03-01T03:07:48;0.60;1.00
3684;DHT22;1858;48.716;9.648;2023-03-01T03:10:20;0.60;1.00
3684;DHT22;1858;48.716;9.648;2023-03-01T03:12:57;0.60;1.00
3684;DHT22;1858;48.716;9.648;2023-03-01T03:15:26;0.70;1.00
3684;DHT22;1858;48.716;9.648;2023-03-01T03:17:57;0.70;1.00
3684;DHT22;1858;48.716;9.648;2023-03-01T03:20:27;0.60;1.00
3684;DHT22;1858;48.716;9.648;2023-03-01T03:22:57;0.60;1.00
3684;DHT22;1858;48.716;9.648;2023-03-01T03:25:27;0.70;1.00
3684;DHT22;1858;48.716;9.648;2023-03-01T03:27:57;0.80;1.00
3684;DHT22;1858;48.716;9.648;2023-03-01T03:30:29;0.70;1.00
3684;DHT22;1858;48.716;9.648;2023-03-01T03:32:58;0.80;1.00
3684;DHT22;1858;48.716;9.648;2023-03-01T03:35:29;0.80;1.00
3684;DHT22;1858;48.716;9.648;2023-03-01T03:38:00;0.80;1.00
3684;DHT22;1858;48.716;9.648;2023-03-01T03:40:43;0.80;1.00
3684;DHT22;1858;48.716;9.648;2023-03-01T03:43:10;0.80;1.00
3684;DHT22;1858;48.716;9.648;2023-03-01T03:45:39;0.80;1.00
3684;DHT22;1858;48.716;9.648;2023-03-01T03:48:09;0.70;1.00
3684;DHT22;1858;48.716;9.648;2023-03-01T03:50:38;0.80;1.00
3684;DHT22;1858;48.716;9.648;2023-03-01T03:53:10;0.80;1.00
3684;DHT22;1858;48.716;9.648;2023-03-01T03:55:39;0.80;1.00
3684;DHT22;1858;48.716;9.648;2023-03-01T03:58:09;0.80;1.00
3684;DHT22;1858;48.716;9.648;2023-03-01T04:00:40;0.70;1.00
3684;DHT22;1858;48.716;9.648;2023-03-01T04:03:10;0.80;1.00
3684;DHT22;1858;48.716;9.648;2023-03-01T04:05:39;0.80;1.00
3684;DHT22;1858;48.716;9.648;2023-03-01T04:08:08;0.90;1.00
3684;DHT22;1858;48.716;9.648;2023-03-01T04:10:39;0.90;1.00
3684;DHT22;1858;48.716;9.648;2023-03-01T04:13:10;1.00;1.00
3684;DHT22;1858;48.716;9.648;2023-03-01T04:15:40;1.00;1.00
3684;DHT22;1858;48.716;9.648;2023-03-01T04:18:12;1.00;1.00
3684;DHT22;1858;48.716;9.648;2023-03-01T04:20:41;1.00;1.00
3684;DHT22;1858;48.716;9.648;2023-03-01T04:23:13;1.00;1.00
3684;DHT22;1858;48.716;9.648;2023-03-01T04:28:31;1.00;1.00
3684;DHT22;1858;48.716;9.648;2023-03-01T04:31:04;1.00;1.00
3684;DHT22;1858;48.716;9.648;2023-03-01T04:33:34;1.20;1.00
3684;DHT22;1858;48.716;9.648;2023-03-01T04:36:02;1.10;1.00
3684;DHT22;1858;48.716;9.648;2023-03-01T04:38:32;1.10;1.00
3684;DHT22;1858;48.716;9.648;2023-03-01T04:41:01;1.10;1.00
3684;DHT22;1858;48.716;9.648;2023-03-01T04:43:30;1.10;1.00
3684;DHT22;1858;48.716;9.648;2023-03-01T04:46:03;1.00;1.00
3684;DHT22;1858;48.716;9.648;2023-03-01T04:48:34;1.10;1.00
3684;DHT22;1858;48.716;9.648;2023-03-01T04:51:03;1.10;1.00
3684;DHT22;1858;48.716;9.648;2023-03-01T04:53:32;1.10;1.00
3684;DHT22;1858;48.716;9.648;2023-03-01T04:56:03;1.10;1.00
3684;DHT22;1858;48.716;9.648;2023-03-01T04:58:32;1.10;1.00
3684;DHT22;1858;48.716;9.648;2023-03-01T05:01:01;1.10;1.00
3684;DHT22;1858;48.716;9.648;2023-03-01T05:03:29;1.00;1.00
3684;DHT22;1858;48.716;9.648;2023-03-01T05:05:58;1.00;1.00
3684;DHT22;1858;48.716;9.648;2023-03-01T05:08:28;1.00;1.00
3684;DHT22;1858;48.716;9.648;2023-03-01T05:10:56;1.00;1.00
3684;DHT22;1858;48.716;9.648;2023-03-01T05:13:24;1.10;1.00
3684;DHT22;1858;48.716;9.648;2023-03-01T05:15:58;1.10;1.00
3684;DHT22;1858;48.716;9.648;2023-03-01T05:18:31;1.10;1.00
3684;DHT22;1858;48.716;9.648;2023-03-01T05:21:12;1.10;1.00
3684;DHT22;1858;48.716;9.648;2023-03-01T05:23:42;1.20;1.00
3684;DHT22;1858;48.716;9.648;2023-03-01T05:26:11;1.10;1.00
3684;DHT22;1858;48.716;9.648;2023-03-01T05:28:39;1.10;1.00
3684;DHT22;1858;48.716;9.648;2023-03-01T05:31:08;1.10;1.00
3684;DHT22;1858;48.716;9.648;2023-03-01T05:33:39;1.10;1.00
3684;DHT22;1858;48.716;9.648;2023-03-01T05:36:09;1.20;1.00
3684;DHT22;1858;48.716;9.648;2023-03-01T05:38:38;1.10;1.00
3684;DHT22;1858;48.716;9.648;2023-03-01T05:41:13;0.90;1.00
3684;DHT22;1858;48.716;9.648;2023-03-01T05:43:38;0.80;1.00
3684;DHT22;1858;48.716;9.648;2023-03-01T05:46:07;0.80;1.00
3684;DHT22;1858;48.716;9.648;2023-03-01T05:48:37;0.80;1.00
3684;DHT22;1858;48.716;9.648;2023-03-01T05:51:06;0.80;1.00
3684;DHT22;1858;48.716;9.648;2023-03-01T17:33:15;5.90;99.90
3684;DHT22;1858;48.716;9.648;2023-03-01T17:35:50;5.80;99.90
3684;DHT22;1858;48.716;9.648;2023-03-01T17:38:19;5.60;99.90
3684;DHT22;1858;48.716;9.648;2023-03-01T17:40:47;5.60;99.90
3684;DHT22;1858;48.716;9.648;2023-03-01T17:43:16;5.50;99.90
3684;DHT22;1858;48.716;9.648;2023-03-01T17:45:46;5.50;99.90
3684;DHT22;1858;48.716;9.648;2023-03-01T17:48:16;5.50;99.90
3684;DHT22;1858;48.716;9.648;2023-03-01T17:50:45;5.50;99.90
3684;DHT22;1858;48.716;9.648;2023-03-01T17:53:13;5.50;99.90
3684;DHT22;1858;48.716;9.648;2023-03-01T17:55:43;5.50;99.90
3684;DHT22;1858;48.716;9.648;2023-03-01T18:01:16;5.40;99.90
3684;DHT22;1858;48.716;9.648;2023-03-01T18:04:00;5.30;99.90
3684;DHT22;1858;48.716;9.648;2023-03-01T18:06:29;5.30;99.90
3684;DHT22;1858;48.716;9.648;2023-03-01T18:08:58;5.30;99.90
3684;DHT22;1858;48.716;9.648;2023-03-01T18:11:26;5.30;99.90
3684;DHT22;1858;48.716;9.648;2023-03-01T18:13:55;5.20;99.90
3684;DHT22;1858;48.716;9.648;2023-03-01T18:16:23;5.20;99.90
3684;DHT22;1858;48.716;9.648;2023-03-01T18:18:54;5.20;99.90
3684;DHT22;1858;48.716;9.648;2023-03-01T18:21:23;5.20;99.90
3684;DHT22;1858;48.716;9.648;2023-03-01T18:23:52;5.20;99.90
3684;DHT22;1858;48.716;9.648;2023-03-01T18:26:21;5.20;99.90
3684;DHT22;1858;48.716;9.648;2023-03-01T18:28:52;5.10;99.90
3684;DHT22;1858;48.716;9.648;2023-03-01T18:31:21;5.10;99.90
3684;DHT22;1858;48.716;9.648;2023-03-01T18:33:52;5.20;99.90
3684;DHT22;1858;48.716;9.648;2023-03-01T18:36:28;5.20;99.90
3684;DHT22;1858;48.716;9.648;2023-03-01T18:38:57;5.30;99.90
3684;DHT22;1858;48.716;9.648;2023-03-01T18:41:27;5.40;99.90
3684;DHT22;1858;48.716;9.648;2023-03-01T18:43:55;5.30;99.90
3684;DHT22;1858;48.716;9.648;2023-03-01T18:46:24;5.40;99.90
3684;DHT22;1858;48.716;9.648;2023-03-01T18:48:53;5.30;99.90
3684;DHT22;1858;48.716;9.648;2023-03-01T18:51:26;5.30;99.90
3684;DHT22;1858;48.716;9.648;2023-03-01T18:53:56;5.30;99.90
3684;DHT22;1858;48.716;9.648;2023-03-01T18:56:29;5.30;99.90
3684;DHT22;1858;48.716;9.648;2023-03-01T18:58:58;5.20;99.90
3684;DHT22;1858;48.716;9.648;2023-03-01T19:01:28;5.20;99.90
3684;DHT22;1858;48.716;9.648;2023-03-01T19:03:57;5.20;99.90
3684;DHT22;1858;48.716;9.648;2023-03-01T19:06:32;5.20;99.90
3684;DHT22;1858;48.716;9.648;2023-03-01T19:09:01;5.20;99.90
3684;DHT22;1858;48.716;9.648;2023-03-01T19:11:30;5.20;99.90
3684;DHT22;1858;48.716;9.648;2023-03-01T19:14:00;5.20;99.90
3684;DHT22;1858;48.716;9.648;2023-03-01T19:16:30;5.20;99.90
3684;DHT22;1858;48.716;9.648;2023-03-01T19:19:00;5.30;99.90
3684;DHT22;1858;48.716;9.648;2023-03-01T19:21:30;5.30;99.90
3684;DHT22;1858;48.716;9.648;2023-03-01T19:23:59;5.40;99.90
3684;DHT22;1858;48.716;9.648;2023-03-01T19:26:29;5.40;99.90
3684;DHT22;1858;48.716;9.648;2023-03-01T19:28:57;5.40;99.90
3684;DHT22;1858;48.716;9.648;2023-03-01T19:31:28;5.40;99.90
3684;DHT22;1858;48.716;9.648;2023-03-01T19:33:57;5.40;99.90
3684;DHT22;1858;48.716;9.648;2023-03-01T19:36:25;5.30;99.90
3684;DHT22;1858;48.716;9.648;2023-03-01T19:38:55;5.30;99.90
3684;DHT22;1858;48.716;9.648;2023-03-01T19:41:24;5.30;99.90
3684;DHT22;1858;48.716;9.648;2023-03-01T19:43:53;5.20;99.90
3684;DHT22;1858;48.716;9.648;2023-03-01T19:46:24;5.20;99.90
3684;DHT22;1858;48.716;9.648;2023-03-01T19:48:52;5.10;99.90
3684;DHT22;1858;48.716;9.648;2023-03-01T19:51:21;5.10;99.90
3684;DHT22;1858;48.716;9.648;2023-03-01T19:53:49;5.00;99.90
3684;DHT22;1858;48.716;9.648;2023-03-01T19:56:18;5.00;99.90
3684;DHT22;1858;48.716;9.648;2023-03-01T19:58:46;4.90;99.90
3684;DHT22;1858;48.716;9.648;2023-03-01T20:01:19;4.90;99.90
3684;DHT22;1858;48.716;9.648;2023-03-01T20:03:48;4.80;99.90
3684;DHT22;1858;48.716;9.648;2023-03-01T20:06:18;4.80;99.90
3684;DHT22;1858;48.716;9.648;2023-03-01T20:08:48;4.70;99.90
3684;DHT22;1858;48.716;9.648;2023-03-01T20:11:18;4.70;99.90
3684;DHT22;1858;48.716;9.648;2023-03-01T20:13:47;4.60;99.90
3684;DHT22;1858;48.716;9.648;2023-03-01T20:16:17;4.40;99.90
3684;DHT22;1858;48.716;9.648;2023-03-01T20:18:46;4.40;99.90
3684;DHT22;1858;48.716;9.648;2023-03-01T20:21:14;4.30;99.90
3684;DHT22;1858;48.716;9.648;2023-03-01T20:23:45;4.20;99.90
3684;DHT22;1858;48.716;9.648;2023-03-01T20:26:14;4.10;99.90
3684;DHT22;1858;48.716;9.648;2023-03-01T20:28:46;4.10;99.90
3684;DHT22;1858;48.716;9.648;2023-03-01T20:31:17;4.00;99.90
3684;DHT22;1858;48.716;9.648;2023-03-01T20:33:46;3.90;99.90
3684;DHT22;1858;48.716;9.648;2023-03-01T20:36:15;3.80;99.90
3684;DHT22;1858;48.716;9.648;2023-03-01T20:38:43;3.70;99.90
3684;DHT22;1858;48.716;9.648;2023-03-01T20:41:12;3.60;99.90
3684;DHT22;1858;48.716;9.648;2023-03-01T20:43:41;3.60;99.90
3684;DHT22;1858;48.716;9.648;2023-03-01T20:46:12;3.60;99.90
3684;DHT22;1858;48.716;9.648;2023-03-01T20:48:41;3.50;99.90
3684;DHT22;1858;48.716;9.648;2023-03-01T20:51:11;3.50;99.90
3684;DHT22;1858;48.716;9.648;2023-03-01T20:53:40;3.50;99.90
3684;DHT22;1858;48.716;9.648;2023-03-01T20:56:14;3.50;99.90
3684;DHT22;1858;48.716;9.648;2023-03-01T20:58:43;3.50;99.90
3684;DHT22;1858;48.716;9.648;2023-03-01T21:01:16;3.50;99.90
3684;DHT22;1858;48.716;9.648;2023-03-01T21:03:45;3.50;99.90
3684;DHT22;1858;48.716;9.648;2023-03-01T21:06:13;3.50;99.90
3684;DHT22;1858;48.716;9.648;2023-03-01T21:08:42;3.50;99.90
3684;DHT22;1858;48.716;9.648;2023-03-01T21:11:10;3.50;99.90
3684;DHT22;1858;48.716;9.648;2023-03-01T21:13:39;3.40;99.90
3684;DHT22;1858;48.716;9.648;2023-03-01T21:16:10;3.30;99.90
3684;DHT22;1858;48.716;9.648;2023-03-01T21:18:40;3.40;99.90
3684;DHT22;1858;48.716;9.648;2023-03-01T21:21:11;3.30;99.90
3684;DHT22;1858;48.716;9.648;2023-03-01T21:23:41;3.30;99.90
3684;DHT22;1858;48.716;9.648;2023-03-01T21:26:18;3.40;99.90
3684;DHT22;1858;48.716;9.648;2023-03-01T21:28:48;3.30;99.90
3684;DHT22;1858;48.716;9.648;2023-03-01T21:31:22;3.30;99.90
3684;DHT22;1858;48.716;9.648;2023-03-01T21:33:53;3.20;99.90
3684;DHT22;1858;48.716;9.648;2023-03-01T21:36:22;3.20;99.90
3684;DHT22;1858;48.716;9.648;2023-03-01T21:38:52;3.20;99.90
3684;DHT22;1858;48.716;9.648;2023-03-01T21:41:26;3.20;99.90
3684;DHT22;1858;48.716;9.648;2023-03-01T21:43:56;3.20;99.90
3684;DHT22;1858;48.716;9.648;2023-03-01T21:46:29;3.20;99.90
3684;DHT22;1858;48.716;9.648;2023-03-01T21:48:59;3.20;99.90
3684;DHT22;1858;48.716;9.648;2023-03-01T21:51:29;3.30;99.90
3684;DHT22;1858;48.716;9.648;2023-03-01T21:53:58;3.20;99.90
3684;DHT22;1858;48.716;9.648;2023-03-01T21:56:31;3.20;99.90
3684;DHT22;1858;48.716;9.648;2023-03-01T21:59:01;3.10;99.90
3684;DHT22;1858;48.716;9.648;2023-03-01T22:01:30;3.10;99.90
3684;DHT22;1858;48.716;9.648;2023-03-01T22:03:59;3.00;99.90
3684;DHT22;1858;48.716;9.648;2023-03-01T22:06:32;3.00;99.90
3684;DHT22;1858;48.716;9.648;2023-03-01T22:09:04;3.10;99.90
3684;DHT22;1858;48.716;9.648;2023-03-01T22:11:35;3.00;1.40
3684;DHT22;1858;48.716;9.648;2023-03-01T22:14:04;2.90;1.00
3684;DHT22;1858;48.716;9.648;2023-03-01T22:16:34;3.00;1.00
3684;DHT22;1858;48.716;9.648;2023-03-01T22:19:05;3.00;1.00
3684;DHT22;1858;48.716;9.648;2023-03-01T22:21:37;2.90;1.00
3684;DHT22;1858;48.716;9.648;2023-03-01T22:24:05;3.00;1.00
3684;DHT22;1858;48.716;9.648;2023-03-01T22:26:36;3.00;1.00
3684;DHT22;1858;48.716;9.648;2023-03-01T22:29:07;3.00;1.00
3684;DHT22;1858;48.716;9.648;2023-03-01T22:31:36;2.90;1.00
3684;DHT22;1858;48.716;9.648;2023-03-01T22:34:05;2.90;1.00
3684;DHT22;1858;48.716;9.648;2023-03-01T22:36:35;2.90;1.00
3684;DHT22;1858;48.716;9.648;2023-03-01T22:39:05;2.80;1.00
3684;DHT22;1858;48.716;9.648;2023-03-01T22:41:38;2.80;1.00
3684;DHT22;1858;48.716;9.648;2023-03-01T22:44:17;2.70;1.00
3684;DHT22;1858;48.716;9.648;2023-03-01T22:46:46;2.70;1.00
3684;DHT22;1858;48.716;9.648;2023-03-01T22:49:16;2.70;1.00
3684;DHT22;1858;48.716;9.648;2023-03-01T22:51:45;2.70;1.00
3684;DHT22;1858;48.716;9.648;2023-03-01T22:54:15;2.70;1.00
3684;DHT22;1858;48.716;9.648;2023-03-01T22:56:44;2.70;1.00
3684;DHT22;1858;48.716;9.648;2023-03-01T22:59:15;2.60;1.00
3684;DHT22;1858;48.716;9.648;2023-03-01T23:01:45;2.50;1.00
3684;DHT22;1858;48.716;9.648;2023-03-01T23:04:14;2.40;1.00
3684;DHT22;1858;48.716;9.648;2023-03-01T23:06:44;2.40;1.00
3684;DHT22;1858;48.716;9.648;2023-03-01T23:09:20;2.40;1.00
3684;DHT22;1858;48.716;9.648;2023-03-01T23:11:44;2.40;1.00
3684;DHT22;1858;48.716;9.648;2023-03-01T23:14:13;2.30;1.00
3684;DHT22;1858;48.716;9.648;2023-03-01T23:16:42;2.30;1.00
3684;DHT22;1858;48.716;9.648;2023-03-01T23:19:11;2.30;1.00
3684;DHT22;1858;48.716;9.648;2023-03-01T23:21:39;2.30;1.00
3684;DHT22;1858;48.716;9.648;2023-03-01T23:24:09;2.30;1.00
3684;DHT22;1858;48.716;9.648;2023-03-01T23:26:38;2.30;1.00
3684;DHT22;1858;48.716;9.648;2023-03-01T23:29:07;2.30;1.00
3684;DHT22;1858;48.716;9.648;2023-03-01T23:31:35;2.30;1.00
3684;DHT22;1858;48.716;9.648;2023-03-01T23:34:04;2.30;1.00
3684;DHT22;1858;48.716;9.648;2023-03-01T23:36:33;2.30;1.00
3684;DHT22;1858;48.716;9.648;2023-03-01T23:39:04;2.30;1.00
3684;DHT22;1858;48.716;9.648;2023-03-01T23:41:34;2.30;1.00
3684;DHT22;1858;48.716;9.648;2023-03-01T23:44:03;2.30;1.00
3684;DHT22;1858;48.716;9.648;2023-03-01T23:46:34;2.30;1.00
3684;DHT22;1858;48.716;9.648;2023-03-01T23:49:02;2.20;1.00
3684;DHT22;1858;48.716;9.648;2023-03-01T23:51:31;2.10;1.00
3684;DHT22;1858;48.716;9.648;2023-03-01T23:54:00;2.10;1.00
3684;DHT22;1858;48.716;9.648;2023-03-01T23:56:33;2.10;1.00
3684;DHT22;1858;48.716;9.648;2023-03-01T23:59:07;2.10;1.00
